Castle Hills, Texas
Current Conditions -  °F | °C
As of 11:51 PM on Wednesday 28 Jan 2015 (Local Time) from KSAT Reporting Station
Few Clouds Few Clouds  
Wind Chill: 61°   Ceiling: Unl
Heat Index: 61°   Visibility: 10mi
Dew Point: 54°   Wind: 8mph
Humidity: 78%   Direction: 170°S
Pressure: 30.14"   Gusts: NA
Location:  29.5157°N, 98.5226°W
Report Text: KSAT 290551Z 17007KT 10SM FEW250 16/12 A3014 RMK AO2 SLP193 T01610122 10222 20156 402670067 50009
Loading
Personal Weather Stations






























Interactive Weather Map New forecast layout! Learn more

10-Day Weather Forecast

Advertisements
Track Severe Weather on mobile